Impacts METAR Board INFO
IDs:

KIAD - Washington/Dulles In, VA, US

Updated at: 0010 UTC 24 Feb 2018
Potential Impact None Slight Moderate High
Time23/12Z 23/13Z 23/14Z 23/15Z 23/16Z 23/17Z 23/18Z 23/19Z 23/20Z 23/21Z 23/22Z 23/23Z 24/00Z
VIS8 2 2 1.5 1.5 1.5 1.5 5 5 10 10 10 10
CIG5 14 7 5 5 7 7 8 9 8 9 8 8
CoverOVCOVCOVCOVCOVCOVCOVCOVCOVCOVCOVCOVCOVC
FltCatIFRIFRIFRIFRIFRIFRIFRIFRIFRIFRIFRIFRIFR
WX-RA-RABRBRBR-DZ BR-DZ BRBRBR--------
WDir9010012090140140140190170170150140160
WSpd3 5 3 4 6 5 6 5 7 6 4 3 4
WGst-- -- -- -- -- -- -- -- -- -- -- -- --
Raw hourly METARs
KIAD 231152Z 09003KT 8SM -RA BKN005 BKN014 OVC021 04/04 A3057 RMK AO2 RAE15B48DZB18E48 SLP354 P0001 60002 70011 T00440044 10050 20039 55003
KIAD 231259Z 10005KT 2SM -RA FEW007 OVC014 04/04 A3057 RMK AO2 SFC VIS 10 P0001 T00440044
KIAD 231352Z 12003KT 2SM BR BKN007 OVC011 04/04 A3057 RMK AO2 SFC VIS 3 RAE27 SLP352 P0001 T00440044
KIAD 231452Z 09004KT 1 1/2SM BR BKN005 OVC013 05/05 A3056 RMK AO2 SLP349 60011 T00500050 58004
KIAD 231552Z 14006KT 1 1/2SM BR BKN005 OVC011 05/04 A3054 RMK AO2 SFC VIS 2 SLP342 T00500044
KIAD 231652Z 14005KT 1 1/2SM -DZ BR OVC007 06/05 A3051 RMK AO2 DZB47 SLP333 P0000 T00560050
KIAD 231752Z 14006KT 1 1/2SM -DZ BR BKN007 OVC012 06/06 A3046 RMK AO2 SFC VIS 2 SLP316 P0000 60011 T00610056 10061 20044 58033
KIAD 231852Z 19005KT 5SM BR OVC008 07/06 A3042 RMK AO2 DZE16 SLP302 P0000 T00670056
KIAD 231952Z 17007KT 5SM BR OVC009 07/06 A3038 RMK AO2 SLP290 T00670056
KIAD 232052Z 17006KT 10SM OVC008 07/06 A3035 RMK AO2 SLP278 60000 T00720061 56038
KIAD 232152Z 15004KT 10SM OVC009 07/06 A3034 RMK AO2 SLP276 T00720061
KIAD 232252Z 14003KT 10SM OVC008 07/07 A3033 RMK AO2 SLP272 T00720067
KIAD 232352Z 16004KT 10SM OVC008 07/07 A3031 RMK AO2 SLP266 60000 T00720067 10072 20061 58012